ANA786 RJFU-RJOO
Flight info
| Callsign | ANA786 |
|---|---|
| Flight time | 0h 50m |
| Altitude | 33000 |
| Route | OOITA Y23 SPIDE Y231 MIRIO Y401 KAINA Y753 IZUMI |
| Aircraft | B738/M-SDE2E3FGHIRWXY/LB1 |
Departure
| Time | 2026-04-15 03:30 |
|---|---|
| Airport | Nagasaki Airport (RJFU) |
Arrival
| Time | 2026-04-15 04:20 |
|---|---|
| Airport | Osaka Itami International Airport (RJOO) |
| Time | Latitude | Longitude | Altitude | Speed | Heading |
|---|---|---|---|---|---|
| 2026-04-15 03:13 | 32.91421 | 129.92133 | 14 ft | 0 kts | 47° |
| 2026-04-15 03:23 | 32.91407 | 129.92114 | 13 ft | 4 kts | 47° |
| 2026-04-15 03:23 | 32.91389 | 129.92090 | 13 ft | 4 kts | 47° |
| 2026-04-15 03:23 | 32.91371 | 129.92067 | 12 ft | 4 kts | 47° |
| 2026-04-15 03:23 | 32.91353 | 129.92044 | 14 ft | 2 kts | 47° |
| 2026-04-15 03:24 | 32.91340 | 129.92020 | 12 ft | 4 kts | 89° |
| 2026-04-15 03:24 | 32.91347 | 129.91992 | 14 ft | 4 kts | 133° |
| 2026-04-15 03:24 | 32.91355 | 129.91983 | 15 ft | 2 kts | 138° |
| 2026-04-15 03:26 | 32.91355 | 129.91984 | 15 ft | 1 kts | 138° |
| 2026-04-15 03:26 | 32.91345 | 129.91994 | 14 ft | 3 kts | 138° |
| 2026-04-15 03:27 | 32.91320 | 129.92021 | 12 ft | 6 kts | 138° |
| 2026-04-15 03:27 | 32.91278 | 129.92066 | 11 ft | 10 kts | 138° |
| 2026-04-15 03:27 | 32.91214 | 129.92134 | 9 ft | 14 kts | 138° |
| 2026-04-15 03:27 | 32.91145 | 129.92209 | 10 ft | 13 kts | 137° |
| 2026-04-15 03:28 | 32.91077 | 129.92281 | 9 ft | 13 kts | 137° |
| 2026-04-15 03:28 | 32.91009 | 129.92352 | 8 ft | 13 kts | 139° |
| 2026-04-15 03:28 | 32.90943 | 129.92422 | 11 ft | 13 kts | 138° |
| 2026-04-15 03:28 | 32.90876 | 129.92493 | 13 ft | 14 kts | 138° |
| 2026-04-15 03:29 | 32.90789 | 129.92518 | 13 ft | 14 kts | 208° |
| 2026-04-15 03:29 | 32.90727 | 129.92433 | 14 ft | 14 kts | 251° |
| 2026-04-15 03:29 | 32.90785 | 129.92313 | 15 ft | 30 kts | 319° |
| 2026-04-15 03:29 | 32.91125 | 129.91953 | 12 ft | 99 kts | 317° |
| 2026-04-15 03:30 | 32.91776 | 129.91251 | 41 ft | 149 kts | 318° |
| 2026-04-15 03:30 | 32.92546 | 129.90383 | 594 ft | 154 kts | 318° |
| 2026-04-15 03:30 | 32.93333 | 129.89511 | 1338 ft | 153 kts | 319° |
| 2026-04-15 03:30 | 32.94149 | 129.88631 | 1921 ft | 166 kts | 320° |
| 2026-04-15 03:31 | 32.95076 | 129.87669 | 2276 ft | 190 kts | 321° |
| 2026-04-15 03:31 | 32.96127 | 129.86567 | 2582 ft | 213 kts | 319° |
| 2026-04-15 03:31 | 32.97288 | 129.85320 | 2835 ft | 237 kts | 319° |
| 2026-04-15 03:31 | 32.98557 | 129.83968 | 3320 ft | 248 kts | 319° |
| 2026-04-15 03:32 | 32.99881 | 129.82563 | 3883 ft | 259 kts | 320° |
| 2026-04-15 03:32 | 33.01442 | 129.81522 | 4675 ft | 262 kts | 345° |
| 2026-04-15 03:32 | 33.03285 | 129.81506 | 5304 ft | 274 kts | 13° |
| 2026-04-15 03:32 | 33.04945 | 129.82620 | 6145 ft | 276 kts | 39° |
| 2026-04-15 03:33 | 33.06320 | 129.84281 | 6807 ft | 286 kts | 46° |
| 2026-04-15 03:33 | 33.07586 | 129.86087 | 7641 ft | 287 kts | 49° |
| 2026-04-15 03:33 | 33.08894 | 129.87922 | 8296 ft | 296 kts | 46° |
| 2026-04-15 03:33 | 33.10276 | 129.89739 | 9164 ft | 295 kts | 45° |
| 2026-04-15 03:34 | 33.11662 | 129.91555 | 10028 ft | 298 kts | 45° |
| 2026-04-15 03:34 | 33.13095 | 129.93443 | 10390 ft | 318 kts | 45° |
| 2026-04-15 03:34 | 33.14485 | 129.95637 | 10478 ft | 349 kts | 62° |
| 2026-04-15 03:34 | 33.15142 | 129.98520 | 10633 ft | 373 kts | 87° |
| 2026-04-15 03:35 | 33.14760 | 130.01589 | 11217 ft | 379 kts | 111° |
| 2026-04-15 03:35 | 33.13383 | 130.04229 | 12041 ft | 375 kts | 135° |
| 2026-04-15 03:35 | 33.11475 | 130.06396 | 12568 ft | 384 kts | 137° |
| 2026-04-15 03:35 | 33.09677 | 130.08797 | 13175 ft | 392 kts | 130° |
| 2026-04-15 03:36 | 33.08047 | 130.11432 | 13848 ft | 398 kts | 127° |
| 2026-04-15 03:36 | 33.06495 | 130.14189 | 14481 ft | 402 kts | 125° |
| 2026-04-15 03:36 | 33.04949 | 130.16989 | 15141 ft | 407 kts | 126° |
| 2026-04-15 03:36 | 33.03371 | 130.19819 | 15768 ft | 412 kts | 126° |
| 2026-04-15 03:37 | 33.01766 | 130.22670 | 16372 ft | 417 kts | 126° |
| 2026-04-15 03:37 | 33.00134 | 130.25557 | 16965 ft | 422 kts | 127° |
| 2026-04-15 03:37 | 32.98720 | 130.28650 | 17509 ft | 432 kts | 110° |
| 2026-04-15 03:37 | 32.98221 | 130.32192 | 18098 ft | 439 kts | 90° |
| 2026-04-15 03:38 | 32.98616 | 130.35803 | 18632 ft | 442 kts | 77° |
| 2026-04-15 03:38 | 32.99290 | 130.39397 | 19135 ft | 447 kts | 76° |
| 2026-04-15 03:38 | 32.99993 | 130.43025 | 19602 ft | 453 kts | 76° |
| 2026-04-15 03:38 | 33.00691 | 130.46696 | 20180 ft | 455 kts | 76° |
| 2026-04-15 03:39 | 33.01363 | 130.50343 | 20730 ft | 459 kts | 77° |
| 2026-04-15 03:39 | 33.02044 | 130.54138 | 21176 ft | 465 kts | 77° |
| 2026-04-15 03:39 | 33.02703 | 130.57870 | 21641 ft | 469 kts | 77° |
| 2026-04-15 03:39 | 33.03378 | 130.61700 | 22138 ft | 474 kts | 77° |
| 2026-04-15 03:40 | 33.04057 | 130.65556 | 22627 ft | 478 kts | 77° |
| 2026-04-15 03:40 | 33.04743 | 130.69457 | 23092 ft | 482 kts | 77° |
| 2026-04-15 03:40 | 33.05432 | 130.73384 | 23542 ft | 486 kts | 77° |
| 2026-04-15 03:40 | 33.06125 | 130.77346 | 23864 ft | 491 kts | 77° |
| 2026-04-15 03:41 | 33.06824 | 130.81346 | 24244 ft | 494 kts | 77° |
| 2026-04-15 03:41 | 33.07522 | 130.85354 | 24718 ft | 495 kts | 77° |
| 2026-04-15 03:41 | 33.08224 | 130.89396 | 25061 ft | 499 kts | 77° |
| 2026-04-15 03:41 | 33.08932 | 130.93474 | 25300 ft | 505 kts | 77° |
| 2026-04-15 03:42 | 33.09646 | 130.97591 | 25617 ft | 509 kts | 77° |
| 2026-04-15 03:42 | 33.10364 | 131.01737 | 25979 ft | 511 kts | 77° |
| 2026-04-15 03:42 | 33.11082 | 131.05898 | 26284 ft | 515 kts | 77° |
| 2026-04-15 03:42 | 33.11804 | 131.10093 | 26569 ft | 519 kts | 77° |
| 2026-04-15 03:43 | 33.12530 | 131.14323 | 26856 ft | 523 kts | 77° |
| 2026-04-15 03:43 | 33.13261 | 131.18588 | 27178 ft | 525 kts | 77° |
| 2026-04-15 03:43 | 33.13983 | 131.22810 | 27532 ft | 527 kts | 77° |
| 2026-04-15 03:43 | 33.14716 | 131.27102 | 27803 ft | 530 kts | 77° |
| 2026-04-15 03:44 | 33.15453 | 131.31428 | 28039 ft | 534 kts | 78° |
| 2026-04-15 03:44 | 33.16195 | 131.35795 | 28246 ft | 538 kts | 78° |
| 2026-04-15 03:44 | 33.16939 | 131.40184 | 28438 ft | 542 kts | 78° |
| 2026-04-15 03:44 | 33.17687 | 131.44609 | 28692 ft | 545 kts | 78° |
| 2026-04-15 03:45 | 33.18438 | 131.49056 | 28940 ft | 547 kts | 78° |
| 2026-04-15 03:45 | 33.19190 | 131.53516 | 29253 ft | 549 kts | 78° |
| 2026-04-15 03:45 | 33.19940 | 131.57983 | 29605 ft | 549 kts | 78° |
| 2026-04-15 03:45 | 33.20690 | 131.62457 | 29894 ft | 551 kts | 78° |
| 2026-04-15 03:46 | 33.21442 | 131.66949 | 30190 ft | 551 kts | 78° |
| 2026-04-15 03:46 | 33.22253 | 131.71420 | 30476 ft | 551 kts | 72° |
| 2026-04-15 03:46 | 33.23501 | 131.75742 | 30735 ft | 550 kts | 66° |
| 2026-04-15 03:46 | 33.24969 | 131.79958 | 30991 ft | 550 kts | 63° |
| 2026-04-15 03:47 | 33.26510 | 131.84149 | 31325 ft | 550 kts | 63° |
| 2026-04-15 03:47 | 33.28044 | 131.88333 | 31680 ft | 549 kts | 63° |
| 2026-04-15 03:47 | 33.29542 | 131.92530 | 32004 ft | 549 kts | 64° |
| 2026-04-15 03:47 | 33.31002 | 131.96743 | 32341 ft | 549 kts | 65° |
| 2026-04-15 03:48 | 33.32438 | 132.00977 | 32625 ft | 550 kts | 65° |
| 2026-04-15 03:48 | 33.33866 | 132.05230 | 32858 ft | 553 kts | 65° |
| 2026-04-15 03:48 | 33.36735 | 132.13804 | 32893 ft | 553 kts | 65° |
| 2026-04-15 03:49 | 33.39571 | 132.22271 | 32813 ft | 544 kts | 65° |
| 2026-04-15 03:49 | 33.42394 | 132.30688 | 32857 ft | 546 kts | 65° |
| 2026-04-15 03:50 | 33.45226 | 132.39153 | 32865 ft | 549 kts | 65° |
| 2026-04-15 03:50 | 33.48074 | 132.47655 | 32860 ft | 551 kts | 65° |
| 2026-04-15 03:51 | 33.50925 | 132.56191 | 32867 ft | 553 kts | 65° |
| 2026-04-15 03:51 | 33.53758 | 132.64703 | 32859 ft | 553 kts | 65° |
| 2026-04-15 03:52 | 33.56599 | 132.73268 | 32871 ft | 552 kts | 66° |
| 2026-04-15 03:52 | 33.59431 | 132.81828 | 32860 ft | 552 kts | 65° |
| 2026-04-15 03:53 | 33.62247 | 132.90353 | 32875 ft | 547 kts | 66° |
| 2026-04-15 03:53 | 33.64814 | 132.98904 | 32854 ft | 544 kts | 75° |
| 2026-04-15 03:54 | 33.66050 | 133.07830 | 32857 ft | 542 kts | 82° |
| 2026-04-15 03:55 | 33.67673 | 133.21250 | 32886 ft | 540 kts | 81° |
| 2026-04-15 03:55 | 33.68837 | 133.30177 | 32863 ft | 541 kts | 81° |
| 2026-04-15 03:56 | 33.70018 | 133.39142 | 32961 ft | 551 kts | 81° |
| 2026-04-15 03:56 | 33.70610 | 133.43712 | 32843 ft | 552 kts | 81° |
| 2026-04-15 03:56 | 33.71192 | 133.48243 | 32828 ft | 546 kts | 81° |
| 2026-04-15 03:57 | 33.72155 | 133.55701 | 32862 ft | 541 kts | 81° |
| 2026-04-15 03:57 | 33.73313 | 133.64592 | 32838 ft | 537 kts | 81° |
| 2026-04-15 03:58 | 33.74472 | 133.73545 | 32863 ft | 548 kts | 81° |
| 2026-04-15 03:58 | 33.75640 | 133.82632 | 32881 ft | 551 kts | 81° |
| 2026-04-15 03:59 | 33.76788 | 133.91717 | 32833 ft | 544 kts | 81° |
| 2026-04-15 03:59 | 33.77925 | 134.00632 | 32870 ft | 539 kts | 81° |
| 2026-04-15 04:00 | 33.79060 | 134.09568 | 32473 ft | 546 kts | 81° |
| 2026-04-15 04:00 | 33.79626 | 134.14084 | 31775 ft | 545 kts | 81° |
| 2026-04-15 04:00 | 33.80181 | 134.18531 | 31060 ft | 543 kts | 81° |
| 2026-04-15 04:00 | 33.80887 | 134.23011 | 30505 ft | 535 kts | 75° |
| 2026-04-15 04:01 | 33.82010 | 134.27234 | 30062 ft | 524 kts | 66° |
| 2026-04-15 04:01 | 33.83555 | 134.31163 | 29183 ft | 520 kts | 61° |
| 2026-04-15 04:01 | 33.85223 | 134.35021 | 28257 ft | 519 kts | 60° |
| 2026-04-15 04:01 | 33.86894 | 134.38872 | 27270 ft | 519 kts | 61° |
| 2026-04-15 04:02 | 33.88514 | 134.42687 | 26310 ft | 519 kts | 62° |
| 2026-04-15 04:02 | 33.90132 | 134.46577 | 25281 ft | 520 kts | 62° |
| 2026-04-15 04:02 | 33.91740 | 134.50486 | 24386 ft | 520 kts | 62° |
| 2026-04-15 04:02 | 33.93335 | 134.54363 | 23612 ft | 515 kts | 62° |
| 2026-04-15 04:03 | 33.94930 | 134.58208 | 22745 ft | 512 kts | 62° |
| 2026-04-15 04:03 | 33.96522 | 134.62030 | 21941 ft | 507 kts | 62° |
| 2026-04-15 04:03 | 33.98089 | 134.65799 | 21329 ft | 497 kts | 63° |
| 2026-04-15 04:03 | 33.99622 | 134.69497 | 20437 ft | 492 kts | 63° |
| 2026-04-15 04:04 | 34.01127 | 134.73143 | 19895 ft | 480 kts | 63° |
| 2026-04-15 04:04 | 34.02599 | 134.76746 | 19139 ft | 476 kts | 64° |
| 2026-04-15 04:04 | 34.04043 | 134.80302 | 18407 ft | 470 kts | 64° |
| 2026-04-15 04:04 | 34.05466 | 134.83816 | 17817 ft | 460 kts | 64° |
| 2026-04-15 04:05 | 34.06871 | 134.87287 | 16838 ft | 458 kts | 64° |
| 2026-04-15 04:05 | 34.08252 | 134.90697 | 15993 ft | 447 kts | 64° |
| 2026-04-15 04:05 | 34.09603 | 134.94023 | 15243 ft | 435 kts | 64° |
| 2026-04-15 04:05 | 34.10916 | 134.97256 | 14546 ft | 423 kts | 64° |
| 2026-04-15 04:06 | 34.12183 | 135.00395 | 13876 ft | 412 kts | 65° |
| 2026-04-15 04:06 | 34.13425 | 135.03476 | 13176 ft | 403 kts | 65° |
| 2026-04-15 04:06 | 34.14639 | 135.06489 | 12467 ft | 394 kts | 65° |
| 2026-04-15 04:06 | 34.15831 | 135.09452 | 11832 ft | 394 kts | 65° |
| 2026-04-15 04:07 | 34.17032 | 135.12436 | 11257 ft | 404 kts | 65° |
| 2026-04-15 04:07 | 34.18244 | 135.15447 | 11065 ft | 390 kts | 65° |
| 2026-04-15 04:07 | 34.19400 | 135.18315 | 10876 ft | 369 kts | 65° |
| 2026-04-15 04:07 | 34.20494 | 135.21034 | 10724 ft | 350 kts | 65° |
| 2026-04-15 04:08 | 34.21668 | 135.23518 | 10571 ft | 335 kts | 53° |
| 2026-04-15 04:08 | 34.23240 | 135.25508 | 10446 ft | 322 kts | 39° |
| 2026-04-15 04:08 | 34.25040 | 135.27041 | 10334 ft | 313 kts | 34° |
| 2026-04-15 04:08 | 34.26844 | 135.28485 | 10217 ft | 310 kts | 33° |
| 2026-04-15 04:09 | 34.28639 | 135.29916 | 10104 ft | 307 kts | 33° |
| 2026-04-15 04:09 | 34.30394 | 135.31324 | 9945 ft | 298 kts | 33° |
| 2026-04-15 04:09 | 34.32103 | 135.32704 | 9631 ft | 294 kts | 34° |
| 2026-04-15 04:09 | 34.33784 | 135.34067 | 9328 ft | 288 kts | 34° |
| 2026-04-15 04:10 | 34.35426 | 135.35405 | 9017 ft | 282 kts | 34° |
| 2026-04-15 04:10 | 34.37042 | 135.36724 | 8781 ft | 278 kts | 34° |
| 2026-04-15 04:10 | 34.38650 | 135.38022 | 8470 ft | 278 kts | 34° |
| 2026-04-15 04:10 | 34.40248 | 135.39335 | 8200 ft | 276 kts | 35° |
| 2026-04-15 04:11 | 34.41827 | 135.40633 | 7939 ft | 274 kts | 34° |
| 2026-04-15 04:11 | 34.43403 | 135.41929 | 7661 ft | 274 kts | 37° |
| 2026-04-15 04:11 | 34.44676 | 135.43601 | 7362 ft | 271 kts | 62° |
| 2026-04-15 04:11 | 34.45580 | 135.45598 | 7092 ft | 271 kts | 63° |
| 2026-04-15 04:12 | 34.46489 | 135.47609 | 6818 ft | 273 kts | 63° |
| 2026-04-15 04:12 | 34.47407 | 135.49633 | 6520 ft | 275 kts | 63° |
| 2026-04-15 04:12 | 34.48332 | 135.51659 | 6221 ft | 275 kts | 63° |
| 2026-04-15 04:12 | 34.49256 | 135.53677 | 5908 ft | 272 kts | 63° |
| 2026-04-15 04:13 | 34.50158 | 135.55640 | 5767 ft | 260 kts | 63° |
| 2026-04-15 04:13 | 34.51020 | 135.57513 | 5620 ft | 249 kts | 63° |
| 2026-04-15 04:13 | 34.51843 | 135.59300 | 5494 ft | 237 kts | 64° |
| 2026-04-15 04:13 | 34.52625 | 135.60998 | 5390 ft | 224 kts | 64° |
| 2026-04-15 04:14 | 34.53375 | 135.62632 | 5308 ft | 222 kts | 65° |
| 2026-04-15 04:14 | 34.54136 | 135.64236 | 5259 ft | 215 kts | 58° |
| 2026-04-15 04:14 | 34.55325 | 135.65229 | 5100 ft | 206 kts | 14° |
| 2026-04-15 04:14 | 34.56735 | 135.65465 | 4893 ft | 212 kts | 3° |
| 2026-04-15 04:15 | 34.58219 | 135.65478 | 4693 ft | 209 kts | 1° |
| 2026-04-15 04:15 | 34.59668 | 135.65445 | 4473 ft | 206 kts | 355° |
| 2026-04-15 04:15 | 34.60929 | 135.64790 | 4449 ft | 201 kts | 321° |
| 2026-04-15 04:15 | 34.61986 | 135.63682 | 4185 ft | 205 kts | 316° |
| 2026-04-15 04:16 | 34.63034 | 135.62467 | 3922 ft | 211 kts | 314° |
| 2026-04-15 04:16 | 34.64056 | 135.61202 | 3643 ft | 209 kts | 313° |
| 2026-04-15 04:16 | 34.65062 | 135.59929 | 3352 ft | 208 kts | 313° |
| 2026-04-15 04:16 | 34.66078 | 135.58672 | 3087 ft | 209 kts | 315° |
| 2026-04-15 04:17 | 34.67117 | 135.57421 | 2815 ft | 211 kts | 315° |
| 2026-04-15 04:17 | 34.68165 | 135.56165 | 2522 ft | 214 kts | 315° |
| 2026-04-15 04:17 | 34.69225 | 135.54894 | 2248 ft | 217 kts | 316° |
| 2026-04-15 04:17 | 34.70297 | 135.53588 | 1949 ft | 220 kts | 321° |
| 2026-04-15 04:18 | 34.71381 | 135.52347 | 1737 ft | 210 kts | 319° |
| 2026-04-15 04:18 | 34.72387 | 135.51084 | 1430 ft | 199 kts | 315° |
| 2026-04-15 04:18 | 34.73311 | 135.49917 | 1168 ft | 184 kts | 319° |
| 2026-04-15 04:18 | 34.74192 | 135.48852 | 908 ft | 174 kts | 318° |
| 2026-04-15 04:19 | 34.75006 | 135.47871 | 713 ft | 156 kts | 320° |
| 2026-04-15 04:19 | 34.75738 | 135.46979 | 488 ft | 146 kts | 322° |
| 2026-04-15 04:19 | 34.76458 | 135.46096 | 292 ft | 146 kts | 318° |
| 2026-04-15 04:19 | 34.77180 | 135.45235 | 118 ft | 144 kts | 321° |
| 2026-04-15 04:20 | 34.77869 | 135.44408 | 45 ft | 127 kts | 317° |
| 2026-04-15 04:20 | 34.78336 | 135.43835 | 45 ft | 63 kts | 316° |
| 2026-04-15 04:20 | 34.78575 | 135.43578 | 41 ft | 42 kts | 331° |
| 2026-04-15 04:20 | 34.78795 | 135.43449 | 47 ft | 25 kts | 335° |
| 2026-04-15 04:21 | 34.78961 | 135.43434 | 47 ft | 24 kts | 18° |
| 2026-04-15 04:21 | 34.79072 | 135.43523 | 47 ft | 15 kts | 31° |
| 2026-04-15 04:21 | 34.79129 | 135.43594 | 49 ft | 12 kts | 74° |
| 2026-04-15 04:21 | 34.79124 | 135.43659 | 48 ft | 2 kts | 114° |
| 2026-04-15 04:22 | 34.79119 | 135.43678 | 49 ft | 3 kts | 95° |
| 2026-04-15 04:22 | 34.79132 | 135.43715 | 46 ft | 6 kts | 54° |
| 2026-04-15 04:22 | 34.79156 | 135.43752 | 49 ft | 2 kts | 51° |
| 2026-04-15 04:22 | 34.79160 | 135.43758 | 49 ft | 0 kts | 51° |